createdAt,value
2023-02-13T00:05:42.944Z,6.20
2023-02-13T00:15:56.482Z,7.00
2023-02-13T00:26:00.791Z,7.90
2023-02-13T00:36:08.024Z,8.20
2023-02-13T00:46:12.318Z,8.20
2023-02-13T00:56:17.510Z,7.90
2023-02-13T01:06:21.469Z,7.90
2023-02-13T01:16:26.749Z,8.00
2023-02-13T01:26:30.546Z,7.70
2023-02-13T01:36:35.934Z,7.40
2023-02-13T01:46:44.753Z,7.10
2023-02-13T01:56:53.592Z,6.70
2023-02-13T02:06:59.862Z,6.70
2023-02-13T02:17:05.822Z,5.60
2023-02-13T02:27:53.993Z,5.80
2023-02-13T02:38:16.026Z,5.70
2023-02-13T02:48:45.161Z,5.60
2023-02-13T02:59:13.832Z,5.60
2023-02-13T03:09:39.188Z,5.40
2023-02-13T03:20:22.324Z,5.20
2023-02-13T03:30:38.419Z,5.20
2023-02-13T03:41:03.741Z,5.00
2023-02-13T03:51:10.178Z,5.10
2023-02-13T04:01:18.423Z,5.20
2023-02-13T04:11:29.562Z,5.30
2023-02-13T04:21:36.502Z,5.20
2023-02-13T04:31:40.761Z,5.10
2023-02-13T04:41:46.066Z,5.00
2023-02-13T04:51:49.908Z,4.80
2023-02-13T05:01:54.954Z,5.00
2023-02-13T05:11:58.596Z,5.20
2023-02-13T05:22:21.314Z,5.10
2023-02-13T05:32:25.050Z,5.10
2023-02-13T05:42:30.292Z,4.80
2023-02-13T05:52:34.088Z,4.80
2023-02-13T06:02:39.224Z,4.70
2023-02-13T06:12:44.669Z,4.60
2023-02-13T06:22:51.777Z,4.80
2023-02-13T06:32:55.805Z,4.50
2023-02-13T06:43:00.986Z,5.00
2023-02-13T06:53:04.827Z,5.10
2023-02-13T07:03:10.223Z,4.70
2023-02-13T07:13:14.865Z,5.00
2023-02-13T07:23:20.284Z,4.90
2023-02-13T07:33:24.670Z,5.40
2023-02-13T07:43:30.775Z,5.50
2023-02-13T07:53:35.116Z,6.00
2023-02-13T08:03:41.026Z,6.60
2023-02-13T08:13:45.182Z,6.90
2023-02-13T08:23:52.292Z,7.50
2023-02-13T08:33:57.256Z,8.00
2023-02-13T08:44:02.426Z,8.30
2023-02-13T08:54:06.198Z,9.10
2023-02-13T09:04:11.272Z,9.40
2023-02-13T09:14:15.212Z,9.90
2023-02-13T09:24:20.566Z,10.00
2023-02-13T09:34:24.550Z,10.40
2023-02-13T09:44:37.890Z,11.00
2023-02-13T09:54:41.649Z,11.50
2023-02-13T10:04:53.931Z,11.70
2023-02-13T10:15:11.651Z,11.70
2023-02-13T10:25:23.106Z,12.10
2023-02-13T10:35:31.470Z,12.40
2023-02-13T10:45:50.887Z,12.70
2023-02-13T10:56:11.338Z,13.10
2023-02-13T11:06:20.531Z,13.60
2023-02-13T11:16:24.319Z,14.30
2023-02-13T11:26:34.596Z,15.30
2023-02-13T11:36:38.469Z,15.20
2023-02-13T11:46:49.592Z,15.70
2023-02-13T11:57:09.575Z,15.70
2023-02-13T12:07:27.621Z,15.80
2023-02-13T12:17:32.877Z,16.10
2023-02-13T12:27:48.884Z,16.10
2023-02-13T12:37:59.698Z,16.20
2023-02-13T12:48:17.924Z,16.50
2023-02-13T12:58:42.963Z,16.90
2023-02-13T13:09:07.232Z,16.80
2023-02-13T13:19:20.253Z,17.40
2023-02-13T13:29:28.312Z,17.80
2023-02-13T13:39:42.287Z,17.70
2023-02-13T13:49:54.008Z,18.60
2023-02-13T14:00:26.310Z,18.50
2023-02-13T14:11:10.109Z,18.60
2023-02-13T14:21:25.676Z,19.80
2023-02-13T14:31:32.751Z,19.50
2023-02-13T14:41:47.808Z,20.00
2023-02-13T14:51:53.659Z,19.40
2023-02-13T15:02:03.624Z,19.40
2023-02-13T15:12:27.842Z,20.20
2023-02-13T15:22:37.325Z,19.40
2023-02-13T15:32:41.616Z,19.00
2023-02-13T15:42:47.624Z,18.80
2023-02-13T15:52:52.407Z,17.30
2023-02-13T16:02:59.601Z,17.00
2023-02-13T16:13:06.482Z,16.60
2023-02-13T16:23:21.288Z,17.20
2023-02-13T16:33:29.079Z,15.70
2023-02-13T16:43:43.897Z,15.30
2023-02-13T16:53:47.674Z,14.40
2023-02-13T17:03:53.501Z,13.30
2023-02-13T17:13:57.270Z,12.70
2023-02-13T17:24:03.910Z,12.50
2023-02-13T17:34:07.616Z,12.30
2023-02-13T17:44:14.460Z,12.20
2023-02-13T17:54:18.252Z,12.00
2023-02-13T18:04:23.866Z,12.00
2023-02-13T18:14:30.818Z,11.80
2023-02-13T18:24:37.857Z,11.70
2023-02-13T18:34:41.688Z,11.60
2023-02-13T18:44:46.747Z,10.30
2023-02-13T18:54:51.568Z,9.60
2023-02-13T19:04:56.717Z,9.30
2023-02-13T19:15:00.512Z,9.00
2023-02-13T19:25:05.887Z,8.80
2023-02-13T19:35:09.970Z,8.50
2023-02-13T19:45:15.468Z,8.50
2023-02-13T19:55:20.935Z,8.50
2023-02-13T20:05:26.129Z,8.10
2023-02-13T20:15:32.062Z,8.10
2023-02-13T20:25:37.345Z,8.10
2023-02-13T20:35:40.979Z,8.10
2023-02-13T20:45:46.084Z,7.90
2023-02-13T20:55:50.509Z,7.90
2023-02-13T21:05:55.590Z,7.60
2023-02-13T21:16:05.908Z,7.60
2023-02-13T21:26:12.992Z,7.40
2023-02-13T21:36:16.699Z,7.30
2023-02-13T21:46:23.742Z,7.30
2023-02-13T21:56:29.808Z,7.00
2023-02-13T22:06:37.181Z,7.00
2023-02-13T22:16:42.692Z,6.80
2023-02-13T22:26:47.821Z,6.90
2023-02-13T22:36:51.768Z,6.70
2023-02-13T22:46:56.917Z,6.40
2023-02-13T22:57:00.604Z,6.60
2023-02-13T23:07:05.898Z,6.50
2023-02-13T23:17:26.778Z,6.60
2023-02-13T23:27:31.930Z,6.80
2023-02-13T23:37:35.705Z,6.70
2023-02-13T23:47:41.095Z,6.90
2023-02-13T23:57:46.305Z,7.00
